Prairieville, Louisiana
Current Conditions -  °F | °C
As of 10:15 AM on Friday 24 Oct 2014 (Local Time) from KL38 Reporting Station
Clear Clear  
Wind Chill: 64°   Ceiling: Unl
Heat Index: 64°   Visibility: 10mi
Dew Point: 52°   Wind: 3mph
Humidity: 64%   Direction: 350°N
Pressure: 30.13"   Gusts: NA
Location:  30.3°N, 90.97°W
Report Text: KL38 241515Z AUTO 35003KT 10SM CLR 18/11 A3013 RMK AO2 T01780109
Loading
Personal Weather Stations






























Interactive Weather Map
Tropical Storm Tracking
New forecast layout! Learn more

10-Day Weather Forecast

Advertisements
Track Severe Weather on mobile